Terminal Aerodrome Forecast
Issued by NWS Mt. Holly, NJ

Home | Current Version | Previous Version | Text Only | Print | Product List | Glossary On
Versions: 1 2 3 4 5 6 7 8 9 10 11 12 13 14 15 16 17 18 19 20 21 22 23
000
FTUS41 KPHI 220500
TAFABE
TAF
KABE 220532Z 2206/2306 08008KT 4SM SHRA SCT006 OVC015
      TEMPO 2206/2209 2SM +TSRA BR BKN006CB OVC025
     FM220900 VRB03KT 3SM SHRA BR OVC015
      TEMPO 2209/2212 2SM BR
     FM221300 08004KT P6SM OVC020
     FM221700 09006KT P6SM -SHRA BKN035
     FM230300 09006KT P6SM OVC020=

USA.gov is the U.S. government's official web portal to all federal, state and local government web resources and services.